EGLC Airport Information

Runway Information
Runway 09 Length 4948 ft width 98 ft Elevation 16 ft Threshold 358 ft Heading 93
Runway 27 Length 4948 ft Width 98 ft Elevation 19 ft Threshold 211 ft Heading 273
Airport Frequencies
Type APP Name APP Frequency 132.7 MHZ
Type ATIS Name ATIS Frequency 136.35 MHZ
Type GND Name GND Frequency 121.825 MHZ
Type TWR Name TWR Frequency 118.075 MHZ
Airport Navaids
Type NDB Name City Frequency 322 KHZ
Airport Weather Information & NOTAM
ADDS - METARS form results

(0715 UTC 13 January 2023)
Data provider http://aviationweather.gov/metar/data/
 
METAR text: EGLC 130650Z AUTO 25016KT 9999 SCT029 BKN048 08/03 Q1004
Conditions at: EGLC (LONDON CITY AIRP, GB) observed 0650 UTC 13 January 2023
Temperature: 8.0°C (46°F)
Dewpoint: 3.0°C (37°F) [RH = 71%]
Pressure (altimeter): 29.65 inches Hg (1004.0 mb)
Winds: from the WSW (250 degrees) at 18 MPH (16 knots; 8.2 m/s)
Visibility: 6 or more miles (10+ km)
Ceiling: 4800 feet AGL
Clouds: scattered clouds at 2900 feet AGL
broken clouds at 4800 feet AGL
Weather: no significant weather observed at this time

METAR text: EGLC 130620Z AUTO 25018G29KT 9999 FEW030 08/03 Q1004
Conditions at: EGLC (LONDON CITY AIRP, GB) observed 0620 UTC 13 January 2023
Temperature: 8.0°C (46°F)
Dewpoint: 3.0°C (37°F) [RH = 71%]
Pressure (altimeter): 29.65 inches Hg (1004.0 mb)
Winds: from the WSW (250 degrees) at 21 MPH (18 knots; 9.3 m/s)
gusting to 33 MPH (29 knots; 14.9 m/s)
Visibility: 6 or more miles (10+ km)
Ceiling: at least 12,000 feet AGL
Clouds: few clouds at 3000 feet AGL
Weather: no significant weather observed at this time

Forecast for: EGLC (LONDON CITY AIRP, GB)
Text: TAF EGLC 130502Z 1306/1315 24017KT 9999 FEW045
Forecast period: 0600 to 1500 UTC 13 January 2023
Forecast type: FROM: standard forecast or significant change
Winds: from the WSW (240 degrees) at 20 MPH (17 knots; 8.7 m/s)
Visibility: 6 or more miles (10+ km)
Ceiling: at least 12,000 feet AGL
Clouds: few clouds at 4500 feet AGL
Weather: no significant weather forecast for this period
Text: TEMPO 1306/1315 25020G32KT
Forecast period: 0600 to 1500 UTC 13 January 2023
Forecast type: TEMPORARY: The following changes expected for less than half the time period
Winds: from the WSW (250 degrees) at 23 MPH (20 knots; 10.3 m/s)
gusting to 37 MPH (32 knots; 16.5 m/s)
Visibility: missing
Ceiling: unknown
Clouds: missing
Weather: no significant weather forecast for this period